Briefing drone pour Nevers (LFQG)

Rechercher une autre localisation

Conditions de vol :


Nous sommes le : Mardi 16 août 2022
Il est 07:10 UTC (09:10 LT)

Lever de soleil : 04:19 UTC (06:19 LT)
Coucher de soleil : 19:23 UTC (21:23 LT)

Météo

L'essentiel des conditions de vol

VIGILANCE MÉTÉO FRANCE - Nièvre (58)
Vigilance Jaune : Orages
CARTES DES FRONTS
METAR de LFQG
LFQG 160700Z AUTO 12006KT CAVOK 19/15 Q1009

Date d'émission: 16/08/2022
Heure d'émission: 07:00 UTC
Vent: 120° pour 6 KT (11 km/h)
Visibilité horizontale: > 10 km
Plafond : Plafond et visibilité OK (CAVOK)
Température: 19 °C
Point de rosée: 15 °C
Humidité: 78%
Pression (QNH): 1009 hPa
Prévision 24h pour Nevers
Vent : 131° pour 2 KT (7 km/h)
Temperature Maxi: 15 °C
Temperature Min: 15 °C
Humidité : 98%
Condition : Légère pluie



Warning: count(): Parameter must be an array or an object that implements Countable in /homepages/6/d509196549/htdocs/droneoxygene/briefing.php on line 743
WEBCAM POUR NEVERS

Réglementation

Voler en sécurité

CARTES AERONAUTIQUE 1/500.000
CARTE AZBA (Reseau basse altitude)
CARTES VAC (LFQG)
SUP AIP




Chargement des AIP...
NOTAM (NEVERS + Terrain à proximité / FIR )




Chargement des NOTAMS...
CONTACT PREFECTURE 58


Avertissement : Les données mises à disposition sont indicatives. Oxygène Drone ne pourra être tenu responsable de dégâts causés aux biens et aux personnes.